17:41
Airports
History
Links
Donate
Help keep this website running!
PayPal
Bitcoin
This page is community maintained. The information is intended for PC simulator navigation or reference.
Always use approved charts for navigation.
SBMG
REGIONAL DE MARINGA SILVIO NAME JUNIOR
REGIONAL DE MARINGA SILVIO NAME JUNIOR (SBMG)
Maringá, Paraná, Brazil (87065)
(U)
Lat/Lng:23° 28' 34.01" S / 52° 0' 59.05" W
-23.476113 / -52.016404
Elevation:1788'ft / 545mMSL
ID / ICAO:SBMG
Runways:1
Longest:(09-27) 2,092.1m / 6,864ft Asphalt
Distance To
Airport ID:
Airport Radio Frequencies
Tower: 131.95
METARUpdated 08-21-17 17:00 GMT
Altimeter: 30.21
Visibility: 6.2 statute miles
Wind: 6 knots (150°)
Temp: 20°c 68°f
Humidity: 56.1%

METAR: SBMG 211700Z 15006KT 9999 BKN035 20/11 Q1023

(Powered by phpweather)
Runway 09 / 27
Dimensions:2092.1 x 44.8m 6864' x 147'ft
Surface:Asphalt
Edge Lights:Low intensity
Runway 09 [A]Runway 27 [B]
Heading:077°TH 257°TH
Lat:
Lng:
23° 28' 41.1"S
52° 1' 35.31"W
23° 28' 26.91"S
52° 0' 22.8"W
User Notes and Comments
Google Map
Nearby Airports
4 Fazenda Tres Minas 13.6 NM
SSMP S 178°
4 Pousada das Aguias 14.8 NM
SSXO NNW 331°
4 Recanto das Aguias 18.3 NM
SSHN NNE 29°
4 Fazenda Jussara 25.8 NM
SSHL WSW 254°
4 Fazenda Barbacena 26.1 NM
SJBW SSE 164°
(C) Arapongas 34.3 NM
SSOG ENE 75°
(C) Paranavai 40.1 NM
SSPI NW 311°
VFR Chart
Flight Planning at SkyVector.com